Time;durP1;ratioP1;P1;durP2;ratioP2;P2;SDS_P1;SDS_P2;PMS_P1;PMS_P2;Temp;Humidity;BMP_temperature;BMP_pressure;BME280_temperature;BME280_humidity;BME280_pressure;Samples;Min_cycle;Max_cycle;Signal;HPM_P1;HPM_P2
2021/07/14 00:00:58;;;;;;;25.10;19.27;;;;;;;24.00;70.67;98881.31;5074713;28;20045;-71
2021/07/14 00:03:28;;;;;;;20.20;17.58;;;;;;;24.10;70.98;98897.22;5074132;28;20501;-69
2021/07/14 00:05:57;;;;;;;18.95;16.13;;;;;;;24.07;70.91;98892.22;5074043;28;20057;-71
2021/07/14 00:08:26;;;;;;;23.35;16.80;;;;;;;24.02;71.13;98888.09;5074201;28;20444;-71
2021/07/14 00:10:55;;;;;;;19.55;15.18;;;;;;;24.02;71.18;98891.66;5073875;28;20036;-71
2021/07/14 00:13:29;;;;;;;20.70;15.98;;;;;;;23.87;71.68;98891.75;5074260;28;20526;-69
2021/07/14 00:23:58;;;;;;;20.10;15.70;;;;;;;23.90;71.84;98881.13;5073827;28;20044;-71
2021/07/14 00:26:27;;;;;;;18.63;14.88;;;;;;;23.84;71.90;98873.72;5073724;28;20048;-69
2021/07/14 00:28:56;;;;;;;17.10;14.75;;;;;;;23.80;72.14;98887.06;5074122;28;20044;-69
2021/07/14 00:31:25;;;;;;;18.65;15.45;;;;;;;23.73;72.33;98886.63;5073685;28;20049;-69
2021/07/14 00:33:55;;;;;;;20.73;15.25;;;;;;;23.72;72.58;98884.97;5074040;28;20505;-71
2021/07/14 00:36:24;;;;;;;17.92;15.07;;;;;;;23.72;72.66;98884.13;5073847;28;20049;-71
2021/07/14 00:38:53;;;;;;;16.92;14.93;;;;;;;23.66;72.66;98890.59;5073597;28;20409;-69
2021/07/14 00:41:22;;;;;;;19.45;15.15;;;;;;;23.58;72.84;98892.88;5073897;28;20187;-69
2021/07/14 00:43:51;;;;;;;18.35;15.68;;;;;;;23.65;73.00;98877.66;5073565;28;20052;-69
2021/07/14 00:46:22;;;;;;;19.85;15.30;;;;;;;23.66;72.84;98893.19;5055977;28;20043;-70
2021/07/14 00:48:53;;;;;;;18.52;15.27;;;;;;;23.67;72.54;98886.22;5073545;28;20063;-71
2021/07/14 00:51:23;;;;;;;18.52;15.55;;;;;;;23.66;72.36;98882.75;5073464;28;20067;-69
2021/07/14 00:53:52;;;;;;;20.08;16.05;;;;;;;23.69;72.11;98884.34;5073864;28;20044;-69
2021/07/14 00:56:21;;;;;;;19.58;16.10;;;;;;;23.70;71.89;98876.44;5073461;28;20068;-69
2021/07/14 00:58:51;;;;;;;20.00;15.45;;;;;;;23.67;71.79;98873.19;5073339;28;20122;-71
2021/07/14 01:01:20;;;;;;;18.50;15.07;;;;;;;23.66;71.95;98869.72;5073642;28;20048;-69
2021/07/14 01:03:57;;;;;;;17.13;14.68;;;;;;;23.64;71.92;98866.41;5073704;28;20064;-69
2021/07/14 01:06:36;;;;;;;17.95;15.55;;;;;;;23.63;72.09;98869.97;5073551;28;20045;-71
2021/07/14 01:09:11;;;;;;;20.08;15.57;;;;;;;23.66;72.10;98874.13;5073723;28;20068;-69
2021/07/14 01:11:41;;;;;;;18.45;14.82;;;;;;;23.67;71.95;98870.56;5055377;28;20385;-69
2021/07/14 01:14:21;;;;;;;17.88;14.98;;;;;;;23.67;72.09;98868.81;5073404;28;20059;-71
2021/07/14 01:16:58;;;;;;;19.83;16.27;;;;;;;23.69;72.21;98873.91;5073660;28;20048;-71
2021/07/14 01:19:43;;;;;;;19.48;16.10;;;;;;;23.66;72.15;98863.72;5073265;28;20047;-71
2021/07/14 01:22:23;;;;;;;21.42;16.42;;;;;;;23.62;72.22;98864.84;5073152;28;20139;-69
2021/07/14 01:24:58;;;;;;;18.85;14.70;;;;;;;23.64;72.11;98861.19;5073207;28;20424;-71
2021/07/14 01:27:34;;;;;;;17.98;14.93;;;;;;;23.63;72.10;98854.31;5056315;28;20474;-71
2021/07/14 01:30:08;;;;;;;18.42;15.98;;;;;;;23.67;72.11;98861.00;5077080;28;20055;-69
2021/07/14 01:32:38;;;;;;;20.70;15.25;;;;;;;23.66;72.45;98859.31;5077060;28;20057;-69
2021/07/14 01:35:13;;;;;;;18.75;15.50;;;;;;;23.66;72.18;98854.09;5077165;28;20510;-71
2021/07/14 01:37:46;;;;;;;18.33;15.27;;;;;;;23.50;72.56;98863.03;5077117;28;20048;-69
2021/07/14 01:40:18;;;;;;;19.88;15.18;;;;;;;23.44;73.24;98866.06;5077121;28;20051;-71
2021/07/14 01:42:56;;;;;;;16.90;14.65;;;;;;;23.45;73.41;98865.97;5077045;28;20391;-72
2021/07/14 01:45:29;;;;;;;19.92;15.27;;;;;;;23.49;73.37;98877.03;5076707;28;20123;-69
2021/07/14 01:48:00;;;;;;;20.95;16.00;;;;;;;23.55;73.23;98874.84;5076733;28;20054;-71
2021/07/14 01:50:33;;;;;;;22.65;15.45;;;;;;;23.64;72.82;98887.25;5059036;28;20055;-69
2021/07/14 01:53:02;;;;;;;20.90;15.15;;;;;;;23.70;72.54;98884.25;5076449;28;20110;-69
2021/07/14 01:55:34;;;;;;;19.00;15.30;;;;;;;23.73;72.28;98881.41;5076533;28;20606;-69
2021/07/14 01:58:05;;;;;;;19.92;16.02;;;;;;;23.73;71.96;98889.22;5058916;28;20128;-69
2021/07/14 02:00:36;;;;;;;17.98;14.95;;;;;;;23.72;71.66;98890.19;5076502;28;20102;-71
2021/07/14 02:03:15;;;;;;;19.40;15.20;;;;;;;23.72;71.61;98878.91;5076362;28;20072;-71
2021/07/14 02:05:45;;;;;;;;;;;;;;;23.75;71.76;98874.34;5076835;28;20045;-71
2021/07/14 02:08:14;;;;;;;18.38;15.02;;;;;;;23.73;72.14;98868.38;5076348;28;20378;-71
2021/07/14 02:10:46;;;;;;;16.65;14.88;;;;;;;23.76;71.90;98855.16;5076214;28;20068;-71
2021/07/14 02:13:17;;;;;;;18.50;14.43;;;;;;;23.76;71.93;98859.53;5076138;28;20048;-69
2021/07/14 02:15:52;;;;;;;16.98;14.73;;;;;;;23.69;71.89;98853.91;5076474;28;20078;-69
2021/07/14 02:18:26;;;;;;;18.00;14.65;;;;;;;23.63;72.24;98848.28;5076797;28;20044;-71
2021/07/14 02:20:58;;;;;;;17.70;14.40;;;;;;;23.62;72.27;98852.66;5076139;28;20098;-69
2021/07/14 02:23:28;;;;;;;17.00;14.48;;;;;;;23.64;72.15;98845.56;5076332;28;20045;-69
2021/07/14 02:26:00;;;;;;;17.63;14.63;;;;;;;23.63;72.14;98837.84;5076379;28;20068;-69
2021/07/14 02:28:31;;;;;;;19.48;15.13;;;;;;;23.61;72.27;98819.69;5075999;28;20048;-71
2021/07/14 02:31:00;;;;;;;17.35;14.77;;;;;;;23.51;72.60;98821.28;5076013;28;20103;-72
2021/07/14 02:33:30;;;;;;;18.20;14.85;;;;;;;23.49;72.80;98815.31;5058219;28;20041;-70
2021/07/14 02:36:04;;;;;;;18.35;14.77;;;;;;;23.48;72.93;98813.66;5076473;28;20040;-71
2021/07/14 02:38:40;;;;;;;19.13;14.82;;;;;;;23.50;72.96;98809.19;5076600;28;20055;-71
2021/07/14 02:41:15;;;;;;;17.40;14.60;;;;;;;23.54;72.58;98802.81;5074974;28;20041;-71
2021/07/14 02:43:49;;;;;;;17.05;14.52;;;;;;;23.56;72.40;98806.16;5075639;28;20049;-71
2021/07/14 02:46:23;;;;;;;16.73;13.63;;;;;;;23.64;71.93;98813.44;5075664;28;20044;-69
2021/07/14 02:48:55;;;;;;;15.95;13.93;;;;;;;23.59;72.00;98805.94;5075640;28;20049;-71
2021/07/14 02:51:26;;;;;;;17.70;13.90;;;;;;;23.63;71.58;98804.81;5075559;28;20063;-69
2021/07/14 02:53:58;;;;;;;17.17;14.02;;;;;;;23.70;71.08;98798.25;5076034;28;20037;-71
2021/07/14 02:56:29;;;;;;;15.55;13.30;;;;;;;23.74;70.77;98794.47;5075466;28;20048;-71
2021/07/14 02:59:04;;;;;;;18.77;14.27;;;;;;;23.75;70.56;98793.56;5075473;28;20090;-71
2021/07/14 03:01:34;;;;;;;17.52;13.65;;;;;;;23.72;70.32;98791.16;5075691;28;20055;-69
2021/07/14 03:04:05;;;;;;;15.85;11.38;;;;;;;23.76;70.24;98792.59;5075255;28;20051;-70
2021/07/14 03:06:35;;;;;;;13.98;12.05;;;;;;;24.05;68.22;98797.56;5075237;28;20044;-71
2021/07/14 03:09:04;;;;;;;14.85;12.20;;;;;;;24.23;67.07;98805.00;5075470;28;20040;-71
2021/07/14 03:11:36;;;;;;;14.48;11.82;;;;;;;24.23;67.25;98812.81;5075099;28;20055;-69
2021/07/14 03:14:09;;;;;;;17.35;12.85;;;;;;;24.30;66.99;98808.00;5074975;28;20051;-69
2021/07/14 03:16:40;;;;;;;15.45;12.48;;;;;;;24.34;66.91;98807.66;5075241;28;20498;-70
2021/07/14 03:19:11;;;;;;;15.98;13.15;;;;;;;24.33;66.91;98810.41;5074894;28;20053;-69
2021/07/14 03:21:41;;;;;;;17.80;13.45;;;;;;;24.27;67.06;98803.00;5074884;28;20056;-71
2021/07/14 03:24:10;;;;;;;15.75;12.80;;;;;;;24.15;67.39;98803.84;5074793;28;20044;-71
2021/07/14 03:26:40;;;;;;;15.63;12.27;;;;;;;24.21;67.42;98817.28;5074612;28;20059;-69
2021/07/14 03:29:12;;;;;;;16.05;12.05;;;;;;;24.20;67.49;98820.00;5074703;28;20036;-69
2021/07/14 03:31:41;;;;;;;14.68;12.18;;;;;;;24.22;67.29;98820.72;5074834;28;20055;-71
2021/07/14 03:34:11;;;;;;;18.33;12.38;;;;;;;24.18;67.41;98816.69;5075130;28;20068;-69
2021/07/14 03:36:43;;;;;;;17.83;12.80;;;;;;;24.17;67.53;98817.59;5074722;28;20074;-70
2021/07/14 03:39:12;;;;;;;19.33;12.98;;;;;;;24.19;67.51;98816.56;5074551;28;20207;-71
2021/07/14 03:41:42;;;;;;;17.13;11.95;;;;;;;24.25;67.34;98820.53;5074804;28;20040;-69
2021/07/14 03:44:13;;;;;;;;;;;;;;;24.26;66.66;98820.41;5074878;28;20098;-71
2021/07/14 03:46:44;;;;;;;15.93;12.32;;;;;;;24.21;66.98;98825.13;5057005;28;19930;-71
2021/07/14 03:49:14;;;;;;;16.92;12.32;;;;;;;24.16;66.89;98834.22;5074393;28;20502;-69
2021/07/14 03:51:44;;;;;;;14.50;11.93;;;;;;;24.24;66.75;98839.72;5074166;28;20494;-71
2021/07/14 03:54:14;;;;;;;14.60;11.98;;;;;;;24.29;66.24;98837.63;5074151;28;20045;-71
2021/07/14 03:56:44;;;;;;;16.63;11.98;;;;;;;24.28;67.02;98834.16;5074173;28;20401;-69
2021/07/14 03:59:14;;;;;;;;;;;;;;;24.22;67.31;98837.22;5056787;28;20554;-71
2021/07/14 04:01:44;;;;;;;16.27;12.20;;;;;;;24.15;67.88;98848.19;5074439;28;20279;-69
2021/07/14 04:04:14;;;;;;;17.20;12.77;;;;;;;24.14;68.29;98846.53;5074130;28;20049;-69
2021/07/14 04:06:46;;;;;;;17.38;12.65;;;;;;;24.02;68.76;98868.22;5072900;28;20044;-69
2021/07/14 04:09:23;;;;;;;16.85;12.93;;;;;;;24.08;68.44;98857.38;5074415;28;20043;-71
2021/07/14 04:11:55;;;;;;;14.63;12.23;;;;;;;24.14;68.17;98864.78;5056346;28;20056;-71
2021/07/14 04:14:27;;;;;;;15.23;12.40;;;;;;;24.21;68.41;98859.03;5073845;28;20371;-69
2021/07/14 04:16:57;;;;;;;20.25;12.13;;;;;;;24.31;67.80;98877.47;5073929;28;20048;-69
2021/07/14 04:19:27;;;;;;;29.65;13.13;;;;;;;24.47;66.75;98862.44;5074231;28;20063;-69
2021/07/14 04:21:55;;;;;;;;;;;;;;;24.67;65.90;98862.69;5074163;28;20452;-70
2021/07/14 04:24:25;;;;;;;14.85;11.25;;;;;;;24.84;64.75;98851.06;5073730;28;19927;-69
2021/07/14 04:26:54;;;;;;;21.50;11.57;;;;;;;24.97;64.04;98849.25;5073680;28;20067;-70
2021/07/14 04:29:25;;;;;;;16.77;11.13;;;;;;;25.06;64.11;98850.34;5073678;28;20041;-69
2021/07/14 04:31:55;;;;;;;22.52;12.55;;;;;;;25.09;64.03;98850.13;5073479;28;20040;-70
2021/07/14 04:34:24;;;;;;;19.45;10.70;;;;;;;25.18;63.31;98849.44;5073569;28;20044;-71
2021/07/14 04:36:53;;;;;;;13.23;10.88;;;;;;;25.27;63.42;98860.03;5073665;28;20051;-70
2021/07/14 04:39:23;;;;;;;14.55;10.85;;;;;;;25.45;62.65;98854.44;5073604;28;20048;-69
2021/07/14 04:41:52;;;;;;;16.50;12.73;;;;;;;25.59;62.49;98856.84;5056155;28;20382;-70
2021/07/14 04:44:31;;;;;;;12.88;10.98;;;;;;;25.70;61.74;98841.19;5056112;28;20040;-69
2021/07/14 04:47:01;;;;;;;17.05;13.32;;;;;;;25.78;62.19;98854.50;5073534;28;20055;-70
2021/07/14 04:49:31;;;;;;;14.90;11.80;;;;;;;25.93;62.12;98853.34;5073563;28;20055;-71
2021/07/14 04:52:00;;;;;;;13.35;11.82;;;;;;;26.05;61.77;98868.09;5073851;28;20074;-71
2021/07/14 04:54:30;;;;;;;16.92;11.40;;;;;;;26.18;61.14;98868.84;5073979;28;20439;-69
2021/07/14 04:56:59;;;;;;;19.85;11.25;;;;;;;26.26;61.68;98870.88;5073679;28;20040;-71
2021/07/14 04:59:29;;;;;;;12.45;10.65;;;;;;;26.32;61.58;98879.06;5073460;28;20052;-70
2021/07/14 05:01:58;;;;;;;13.13;10.63;;;;;;;26.46;61.02;98881.47;5073667;28;20045;-70
2021/07/14 05:04:29;;;;;;;12.02;9.88;;;;;;;26.53;61.02;98890.50;5077085;28;20490;-70
2021/07/14 05:06:58;;;;;;;13.55;10.50;;;;;;;26.58;61.11;98888.34;5077694;28;20090;-69
2021/07/14 05:09:27;;;;;;;13.02;10.18;;;;;;;26.61;60.15;98889.88;5077748;28;20043;-69
2021/07/14 05:11:58;;;;;;;19.23;11.95;;;;;;;26.83;59.67;98881.19;5077784;28;20494;-71
2021/07/14 05:14:27;;;;;;;11.88;10.50;;;;;;;27.06;58.17;98872.31;5077555;28;20043;-70
2021/07/14 05:16:56;;;;;;;15.23;10.57;;;;;;;27.19;56.71;98872.97;5077267;28;20039;-72
2021/07/14 05:19:25;;;;;;;13.23;10.95;;;;;;;27.27;56.83;98860.09;5077188;28;20402;-72
2021/07/14 05:21:55;;;;;;;15.63;13.35;;;;;;;27.35;57.29;98867.31;5077363;28;20131;-71
2021/07/14 05:24:24;;;;;;;17.40;12.27;;;;;;;27.39;56.96;98847.78;5077533;28;20071;-70
2021/07/14 05:26:53;;;;;;;19.48;17.48;;;;;;;27.46;55.70;98844.53;5060042;28;20429;-72
2021/07/14 05:29:26;;;;;;;19.92;11.95;;;;;;;27.52;54.96;98846.63;5077116;28;20418;-71
2021/07/14 05:31:55;;;;;;;13.82;12.32;;;;;;;27.67;54.15;98837.50;5076853;28;20052;-71
2021/07/14 05:34:24;;;;;;;19.95;17.25;;;;;;;27.84;53.88;98844.78;5076873;28;20518;-71
2021/07/14 05:36:53;;;;;;;12.55;11.13;;;;;;;28.07;52.90;98849.91;5077275;28;20040;-71
2021/07/14 05:39:24;;;;;;;20.15;17.42;;;;;;;28.23;51.70;98840.56;5076825;28;20406;-71
2021/07/14 05:41:53;;;;;;;12.23;9.40;;;;;;;28.26;51.23;98837.69;5077470;28;20048;-71
2021/07/14 05:44:22;;;;;;;10.38;8.95;;;;;;;28.45;50.54;98842.16;5076749;28;20036;-72
2021/07/14 05:46:52;;;;;;;12.20;10.13;;;;;;;28.67;50.45;98855.13;5076631;28;20360;-71
2021/07/14 05:49:22;;;;;;;15.27;12.25;;;;;;;28.76;50.06;98846.41;5076687;28;20102;-70
2021/07/14 05:51:51;;;;;;;13.63;9.35;;;;;;;28.83;50.19;98849.31;5077221;28;20043;-70
2021/07/14 05:54:20;;;;;;;15.98;10.35;;;;;;;28.77;50.19;98840.19;5076782;28;20055;-70
2021/07/14 05:56:51;;;;;;;10.20;8.70;;;;;;;28.69;50.39;98832.16;5076604;28;20036;-71
2021/07/14 05:59:20;;;;;;;12.75;9.95;;;;;;;28.58;50.69;98834.84;5076521;28;20123;-72
2021/07/14 06:01:49;;;;;;;11.63;9.80;;;;;;;28.48;50.96;98860.28;5076532;28;20036;-71
2021/07/14 06:04:18;;;;;;;11.77;9.95;;;;;;;28.42;51.45;98881.81;5058884;28;20040;-71
2021/07/14 06:06:47;;;;;;;12.48;9.50;;;;;;;28.29;50.98;98886.47;5076439;28;20133;-71
2021/07/14 06:09:17;;;;;;;14.07;9.25;;;;;;;28.26;51.67;98886.72;5076861;28;20548;-71
2021/07/14 06:11:46;;;;;;;13.27;9.18;;;;;;;28.30;51.52;98869.75;5076170;28;20051;-71
2021/07/14 06:14:17;;;;;;;12.10;10.05;;;;;;;28.34;51.70;98879.00;5075766;28;20101;-71
2021/07/14 06:16:46;;;;;;;11.60;9.40;;;;;;;28.36;51.68;98879.72;5076453;28;20055;-71
2021/07/14 06:19:15;;;;;;;11.43;8.85;;;;;;;28.37;51.39;98884.00;5076110;28;20049;-70
2021/07/14 06:21:43;;;;;;;11.45;9.77;;;;;;;28.31;51.00;98889.78;5076079;28;20041;-70
2021/07/14 06:24:12;;;;;;;12.20;8.98;;;;;;;28.35;51.28;98891.19;5075843;28;20076;-70
2021/07/14 06:26:41;;;;;;;12.00;8.93;;;;;;;28.38;51.37;98896.16;5075902;28;20132;-71
2021/07/14 06:29:10;;;;;;;10.85;8.82;;;;;;;28.53;50.93;98915.84;5076183;28;20513;-70
2021/07/14 06:31:45;;;;;;;10.80;8.32;;;;;;;28.61;50.56;98929.19;5075671;28;20052;-72
2021/07/14 06:34:15;;;;;;;11.07;8.98;;;;;;;28.60;49.60;98938.03;5075824;28;20099;-71
2021/07/14 06:36:44;;;;;;;11.20;8.27;;;;;;;28.64;47.97;98981.47;5075911;28;20497;-71
2021/07/14 06:39:12;;;;;;;;;;;;;;;28.71;47.36;99008.03;5076791;28;20056;-71
2021/07/14 06:41:41;;;;;;;12.83;8.20;;;;;;;28.66;47.83;99031.22;5076052;28;20020;-70
2021/07/14 06:44:11;;;;;;;10.63;8.63;;;;;;;28.50;48.41;99026.41;5075607;28;20277;-70
2021/07/14 06:46:42;;;;;;;11.45;9.02;;;;;;;28.29;49.98;99028.22;5075604;28;20048;-70
2021/07/14 06:49:11;;;;;;;13.05;9.30;;;;;;;28.11;52.03;99040.25;5057666;28;20091;-69
2021/07/14 06:51:39;;;;;;;13.48;10.80;;;;;;;27.85;54.58;99040.59;5076159;28;20564;-70
2021/07/14 06:54:09;;;;;;;17.92;12.48;;;;;;;27.44;58.33;99050.13;5075684;28;20523;-70
2021/07/14 06:56:38;;;;;;;16.02;12.85;;;;;;;26.81;63.38;99069.06;5075587;28;20557;-71
2021/07/14 06:59:07;;;;;;;18.48;13.35;;;;;;;26.24;66.61;99084.72;5075777;28;20417;-70
2021/07/14 07:01:37;;;;;;;20.27;13.45;;;;;;;25.84;68.35;99084.19;5075538;28;20041;-70
2021/07/14 07:04:07;;;;;;;15.55;13.00;;;;;;;25.57;68.95;99075.72;5075469;28;20610;-70
2021/07/14 07:06:36;;;;;;;16.42;12.88;;;;;;;25.31;69.82;99064.47;5075163;28;20474;-70
2021/07/14 07:09:05;;;;;;;16.00;12.10;;;;;;;25.11;70.76;99051.97;5075174;28;20050;-69
2021/07/14 07:11:36;;;;;;;20.88;11.70;;;;;;;24.98;71.01;99031.09;5075058;28;20047;-72
2021/07/14 07:14:06;;;;;;;16.58;11.57;;;;;;;24.96;71.16;99022.53;5075053;28;20068;-70
2021/07/14 07:16:35;;;;;;;17.80;12.75;;;;;;;24.93;71.01;99025.34;5074971;28;20407;-68
2021/07/14 07:19:05;;;;;;;15.20;11.77;;;;;;;24.81;71.67;99023.59;5074829;28;20109;-70
2021/07/14 07:21:35;;;;;;;13.93;12.23;;;;;;;24.65;72.67;99017.72;5075018;28;20040;-73
2021/07/14 07:24:05;;;;;;;19.27;13.07;;;;;;;24.52;73.27;99017.72;5057278;28;20044;-73
2021/07/14 07:26:34;;;;;;;16.30;11.95;;;;;;;24.47;74.13;99016.38;5074644;28;20064;-72
2021/07/14 07:29:12;;;;;;;16.00;12.63;;;;;;;24.29;75.19;99015.00;5074796;28;20067;-72
2021/07/14 07:31:41;;;;;;;19.77;14.48;;;;;;;24.34;75.89;99007.69;5074604;28;20059;-72
2021/07/14 07:34:10;;;;;;;14.82;12.77;;;;;;;24.40;75.62;99017.75;5073959;28;20123;-72
2021/07/14 07:36:41;;;;;;;19.77;14.48;;;;;;;24.37;75.40;99038.81;5073767;28;20071;-73
2021/07/14 07:39:11;;;;;;;19.40;12.93;;;;;;;24.36;75.79;99047.56;5074323;28;20036;-72
2021/07/14 07:41:40;;;;;;;17.58;13.15;;;;;;;24.24;75.83;99054.44;5056359;28;20098;-73
2021/07/14 07:44:12;;;;;;;19.05;13.32;;;;;;;24.17;76.11;99073.19;5074238;28;20074;-72
2021/07/14 07:46:42;;;;;;;14.55;12.68;;;;;;;24.07;76.37;99082.59;5074207;28;20049;-69
2021/07/14 07:49:12;;;;;;;16.60;12.23;;;;;;;24.07;76.23;99065.16;5074232;28;20518;-70
2021/07/14 07:51:42;;;;;;;19.95;12.48;;;;;;;24.05;76.47;99032.25;5074400;28;20041;-71
2021/07/14 07:54:14;;;;;;;24.05;13.48;;;;;;;23.86;76.77;99001.34;5074353;28;20045;-71
2021/07/14 07:56:43;;;;;;;20.60;12.70;;;;;;;23.57;77.67;98916.41;5023307;28;20060;-69
2021/07/14 07:59:13;;;;;;;21.08;13.32;;;;;;;23.52;78.44;98931.50;5074171;28;20494;-70
2021/07/14 08:01:42;;;;;;;;;;;;;;;23.62;78.83;98956.88;5074465;28;20048;-70
2021/07/14 08:04:12;;;;;;;17.45;12.60;;;;;;;23.72;79.20;98967.53;5074001;28;20011;-70
2021/07/14 08:06:43;;;;;;;19.25;14.20;;;;;;;23.86;79.64;98951.81;5073920;28;20498;-70
2021/07/14 08:09:12;;;;;;;20.98;14.05;;;;;;;23.99;79.71;98971.75;5074001;28;20044;-71
2021/07/14 08:11:41;;;;;;;20.98;14.38;;;;;;;24.00;79.20;98973.44;5073865;28;20076;-72
2021/07/14 08:14:14;;;;;;;18.98;13.48;;;;;;;23.93;79.18;98976.53;5073955;28;20041;-71
2021/07/14 08:16:43;;;;;;;19.45;15.18;;;;;;;23.89;79.25;98946.41;5074171;28;20056;-71
2021/07/14 08:19:12;;;;;;;21.65;14.85;;;;;;;23.96;79.13;98939.84;5074068;28;20521;-73
2021/07/14 08:21:42;;;;;;;24.75;15.55;;;;;;;24.25;79.07;98963.97;5073868;28;20139;-73
2021/07/14 08:24:12;;;;;;;21.85;17.02;;;;;;;24.44;79.09;98946.97;5073695;28;20079;-72
2021/07/14 08:26:41;;;;;;;21.02;16.88;;;;;;;24.57;78.83;98946.97;5073672;28;20418;-73
2021/07/14 08:29:16;;;;;;;21.98;16.02;;;;;;;24.74;78.61;98953.63;5073717;28;20041;-73
2021/07/14 08:31:46;;;;;;;19.13;15.30;;;;;;;25.02;78.16;98972.50;5073595;28;20048;-72
2021/07/14 08:34:15;;;;;;;21.52;16.38;;;;;;;25.40;77.34;98979.34;5039200;28;20399;-73
2021/07/14 08:36:46;;;;;;;19.65;15.85;;;;;;;25.76;78.22;98998.44;5055350;28;20051;-72
2021/07/14 08:39:15;;;;;;;21.35;16.98;;;;;;;25.92;78.69;99009.44;5073123;28;20049;-72
2021/07/14 08:41:45;;;;;;;20.60;16.63;;;;;;;25.97;78.15;99016.94;5073514;28;20064;-74
2021/07/14 08:44:14;;;;;;;20.55;17.15;;;;;;;25.97;77.37;99019.56;5055756;28;20045;-73
2021/07/14 08:46:43;;;;;;;;;;;;;;;26.05;77.03;99025.06;5056572;28;20048;-72
2021/07/14 08:49:14;;;;;;;19.60;15.38;;;;;;;26.16;76.35;99032.97;5055564;28;20354;-71
2021/07/14 08:51:45;;;;;;;21.33;15.20;;;;;;;26.33;76.27;99019.44;5073727;28;20048;-71
2021/07/14 08:54:17;;;;;;;21.08;15.18;;;;;;;26.61;74.94;99034.72;5073452;28;20501;-73
2021/07/14 08:56:46;;;;;;;19.00;14.65;;;;;;;26.79;73.90;99039.53;5073436;28;20386;-73
2021/07/14 08:59:17;;;;;;;17.67;14.88;;;;;;;26.79;71.90;99036.91;5073263;28;20044;-73
2021/07/14 09:01:47;;;;;;;17.73;14.55;;;;;;;26.89;72.03;99032.63;5073293;28;20048;-73
2021/07/14 09:04:18;;;;;;;21.00;15.55;;;;;;;27.11;71.72;99043.09;5073217;28;20053;-73
2021/07/14 09:06:48;;;;;;;;;;;;;;;27.38;71.75;99045.38;5055597;28;20060;-71
2021/07/14 09:09:18;;;;;;;17.38;14.77;;;;;;;27.51;71.29;99041.63;5073177;28;20346;-70
2021/07/14 09:11:52;;;;;;;20.10;14.10;;;;;;;27.57;70.17;99041.13;5073095;28;20577;-71
2021/07/14 09:14:31;;;;;;;17.92;14.32;;;;;;;27.79;70.49;99035.81;5073051;28;20045;-72
2021/07/14 09:17:02;;;;;;;15.77;12.57;;;;;;;27.77;69.33;99042.16;5073049;28;20037;-72
2021/07/14 09:19:31;;;;;;;16.75;12.93;;;;;;;27.80;69.37;99049.78;5073126;28;20037;-72
2021/07/14 09:22:03;;;;;;;17.25;14.07;;;;;;;27.96;68.69;99041.47;5073365;28;20037;-72
2021/07/14 09:24:33;;;;;;;16.80;14.18;;;;;;;28.02;69.09;99048.88;5072963;28;20048;-72
2021/07/14 09:27:04;;;;;;;15.65;12.55;;;;;;;28.08;68.73;99051.00;5073073;28;20049;-71
2021/07/14 09:29:33;;;;;;;17.02;13.88;;;;;;;28.07;69.13;99054.59;5055197;28;20498;-72
2021/07/14 09:32:09;;;;;;;15.13;13.25;;;;;;;27.96;69.12;99054.59;5072980;28;20041;-72
2021/07/14 09:34:52;;;;;;;18.67;14.57;;;;;;;28.02;69.66;99068.09;5073059;28;20036;-72
2021/07/14 09:37:23;;;;;;;18.48;13.52;;;;;;;28.34;68.94;99068.03;5072842;28;20052;-71
2021/07/14 09:39:52;;;;;;;15.20;12.52;;;;;;;28.61;67.60;99063.13;5073418;28;20041;-71
2021/07/14 09:42:21;;;;;;;16.23;13.18;;;;;;;28.68;65.47;99061.66;5073130;28;20083;-71
2021/07/14 09:44:51;;;;;;;15.18;12.65;;;;;;;28.71;64.62;99066.66;5073054;28;20490;-72
2021/07/14 09:47:22;;;;;;;14.63;12.18;;;;;;;28.56;63.36;99053.00;5073005;28;20082;-72
2021/07/14 09:49:51;;;;;;;17.90;13.32;;;;;;;28.96;63.46;99055.69;5075330;28;20120;-72
2021/07/14 09:52:23;;;;;;;15.98;13.18;;;;;;;29.21;63.51;99059.72;5076678;28;20064;-72
2021/07/14 09:55:07;;;;;;;14.90;12.65;;;;;;;29.08;61.38;99053.84;5076557;28;20502;-71
2021/07/14 09:57:36;;;;;;;15.98;12.52;;;;;;;29.13;60.95;99057.72;5076534;28;20055;-72
2021/07/14 10:00:19;;;;;;;15.07;12.48;;;;;;;29.36;61.05;99058.38;5076674;28;20497;-72
2021/07/14 10:02:56;;;;;;;13.77;12.30;;;;;;;29.30;60.11;99047.56;5076733;28;20114;-71
2021/07/14 10:05:27;;;;;;;14.73;12.00;;;;;;;29.36;58.63;99047.03;5058931;28;20553;-72
2021/07/14 10:08:14;;;;;;;19.02;12.57;;;;;;;29.36;58.65;99045.22;5076457;28;20044;-71
2021/07/14 10:10:43;;;;;;;14.73;12.68;;;;;;;29.48;57.84;99035.41;5076262;28;20060;-71
2021/07/14 10:13:12;;;;;;;13.88;12.27;;;;;;;29.59;57.95;99030.03;5076427;28;20049;-71
2021/07/14 10:15:42;;;;;;;15.63;12.18;;;;;;;29.63;58.00;99029.63;5076133;28;20044;-71
2021/07/14 10:18:14;;;;;;;15.15;12.48;;;;;;;29.77;58.55;99026.63;5076083;28;20041;-72
2021/07/14 10:20:44;;;;;;;14.10;12.02;;;;;;;29.74;58.51;99026.03;5076412;28;20139;-72
2021/07/14 10:23:18;;;;;;;15.98;12.55;;;;;;;29.62;57.85;99021.88;5076199;28;20110;-71
2021/07/14 10:25:48;;;;;;;13.80;12.15;;;;;;;29.48;57.74;99022.25;5075947;28;20067;-71
2021/07/14 10:28:19;;;;;;;13.90;11.82;;;;;;;29.42;57.75;99025.44;5075771;28;20046;-70
2021/07/14 10:30:50;;;;;;;16.85;11.75;;;;;;;29.40;57.87;99011.59;5075550;28;20102;-71
2021/07/14 10:33:21;;;;;;;17.17;12.85;;;;;;;29.47;58.17;99017.97;5075789;28;20054;-71
2021/07/14 10:35:52;;;;;;;14.77;12.73;;;;;;;29.62;60.39;99021.88;5076145;28;20052;-73
2021/07/14 10:38:26;;;;;;;14.90;12.25;;;;;;;29.47;60.07;99025.84;5057813;28;20448;-71
2021/07/14 10:41:01;;;;;;;14.13;12.60;;;;;;;29.75;60.95;99019.81;5057868;28;20048;-71
2021/07/14 10:43:32;;;;;;;17.27;12.13;;;;;;;29.95;59.55;99012.75;5075667;28;20132;-72
2021/07/14 10:46:23;;;;;;;14.02;11.95;;;;;;;30.24;59.18;99014.38;5075827;28;20067;-70
2021/07/14 10:48:54;;;;;;;16.30;11.40;;;;;;;30.37;59.50;98982.53;5075858;28;20119;-71
2021/07/14 10:51:27;;;;;;;14.50;11.82;;;;;;;30.58;58.18;99016.56;5075813;28;20127;-72
2021/07/14 10:54:02;;;;;;;14.57;12.02;;;;;;;30.56;56.83;99013.25;5076101;28;20437;-72
2021/07/14 10:56:35;;;;;;;14.27;11.63;;;;;;;30.51;57.07;99013.66;5075723;28;20135;-72
2021/07/14 10:59:05;;;;;;;15.70;11.95;;;;;;;30.45;56.55;99012.44;5076294;28;20406;-71
2021/07/14 11:01:45;;;;;;;15.63;11.50;;;;;;;30.21;56.11;99004.13;5074522;28;20048;-71
2021/07/14 11:04:45;;;;;;;19.60;12.65;;;;;;;30.36;56.30;98996.66;5074867;28;20043;-72
2021/07/14 11:07:13;;;;;;;;;;;;;;;30.12;56.04;98994.44;5075351;28;20037;-71
2021/07/14 11:09:46;;;;;;;16.33;12.23;;;;;;;30.06;56.58;98989.75;5075335;28;19962;-71
2021/07/14 11:12:28;;;;;;;17.55;12.13;;;;;;;30.00;56.17;98979.78;5075170;28;20433;-71
2021/07/14 11:15:00;;;;;;;13.98;11.80;;;;;;;29.93;56.54;98980.47;5075128;28;20041;-71
2021/07/14 11:17:32;;;;;;;13.55;12.13;;;;;;;30.03;56.38;98981.31;5074869;28;20414;-71
2021/07/14 11:20:08;;;;;;;13.43;11.90;;;;;;;30.06;55.92;98971.34;5074861;28;20106;-71
2021/07/14 11:22:39;;;;;;;13.85;11.88;;;;;;;30.15;55.68;98967.00;5075081;28;20097;-71
2021/07/14 11:25:23;;;;;;;13.95;12.18;;;;;;;30.21;55.64;98964.63;5074744;28;20063;-71
2021/07/14 11:27:54;;;;;;;17.75;12.40;;;;;;;30.30;55.22;98969.06;5075441;28;20082;-71
2021/07/14 11:30:45;;;;;;;14.00;12.20;;;;;;;30.38;55.43;98963.94;5074764;28;20405;-71
2021/07/14 11:33:29;;;;;;;16.45;12.15;;;;;;;30.50;54.90;98964.56;5074595;28;20051;-71
2021/07/14 11:36:01;;;;;;;15.05;11.75;;;;;;;30.35;55.15;98968.66;5074558;28;20235;-71
2021/07/14 11:38:42;;;;;;;13.85;11.95;;;;;;;30.31;54.64;98957.53;5074561;28;20068;-72
2021/07/14 11:41:35;;;;;;;14.95;12.15;;;;;;;30.24;55.32;98956.44;5074434;28;20037;-72
2021/07/14 11:44:05;;;;;;;14.52;11.70;;;;;;;30.26;56.08;98959.78;5074408;28;20095;-72
2021/07/14 11:46:38;;;;;;;14.68;12.52;;;;;;;30.31;57.95;98965.44;5064661;28;20455;-72